Arsenal, Utah
Current Conditions -  °F | °C
As of 8:58 AM on Thursday 23 Oct 2014 (Local Time) from KHIF Reporting Station
Broken Clouds Broken Clouds  
Wind Chill:   Ceiling: 15000
Heat Index:   Visibility: 10mi
Dew Point: -3°   Wind: 16mph
Humidity: 45%   Direction: 110°ESE
Pressure: 30.16"   Gusts: NA
Location:  41.123°N, 112.063°W
Report Text: KHIF 231458Z 11014KT 10SM BKN150 08/M03 A3016 RMK AO2A SLP194 T00841031 53004
Loading
Personal Weather Stations






























Interactive Weather Map
Tropical Storm Tracking
New forecast layout! Learn more

10-Day Weather Forecast

Advertisements
Track Severe Weather on mobile